Terminal Aerodrome Forecast
Issued by NWS Wilmington, NC

Home | Current Version | Previous Version | Text Only | Print | Product List | Glossary On
Versions: 1 2 3 4 5 6 7 8 9 10 11 12 13 14 15
000
FTUS42 KILM 070520
TAFLBT
TAF
KLBT 070520Z 0706/0806 20004KT P6SM SCT250
     FM071800 21006KT P6SM VCTS BKN030CB
     FM080000 18004KT P6SM FEW250=

USA.gov is the U.S. government's official web portal to all federal, state and local government web resources and services.